Ladd, Illinois
Current Conditions -  °F | °C
As of 7:15 AM on Wednesday 22 Oct 2014 (Local Time) from KVYS Reporting Station
Clear Clear  
Wind Chill: 28°   Ceiling: Unl
Heat Index: 34°   Visibility: 10mi
Dew Point: 33°   Wind: 6mph
Humidity: 96%   Direction: 50°NE
Pressure: 30.34"   Gusts: NA
Location:  41.38°N, 89.22°W
Report Text: KVYS 221215Z AUTO 05005KT 10SM CLR 01/00 A3034 RMK AO2 T00090003
Loading
Personal Weather Stations






























Interactive Weather Map
Tropical Storm Tracking
New forecast layout! Learn more

10-Day Weather Forecast

Advertisements
Track Severe Weather on mobile